Time;durP1;ratioP1;P1;durP2;ratioP2;P2;SDS_P1;SDS_P2;PMS_P1;PMS_P2;Temp;Humidity;BMP_temperature;BMP_pressure;BME280_temperature;BME280_humidity;BME280_pressure;Samples;Min_cycle;Max_cycle;Signal;HPM_P1;HPM_P2
2022/06/06 00:00:08;;;;;;;9.17;8.37;;;23.80;1.00;;;;;;5051190;28;20237;-53
2022/06/06 00:02:34;;;;;;;8.90;8.30;;;23.80;1.00;;;;;;5050382;28;20759;-55
2022/06/06 00:04:59;;;;;;;9.20;8.40;;;23.70;1.00;;;;;;5049101;28;20443;-54
2022/06/06 00:07:26;;;;;;;8.93;8.33;;;23.70;1.00;;;;;;5048195;28;20628;-55
2022/06/06 00:09:52;;;;;;;10.10;9.30;;;23.60;1.00;;;;;;5053369;28;20229;-54
2022/06/06 00:12:20;;;;;;;9.67;9.00;;;23.60;1.00;;;;;;5050530;28;20409;-54
2022/06/06 00:14:45;;;;;;;10.50;8.80;;;23.60;1.00;;;;;;5049265;28;20435;-53
2022/06/06 00:17:12;;;;;;;9.83;9.20;;;23.50;1.00;;;;;;5046603;28;20456;-55
2022/06/06 00:19:38;;;;;;;9.60;8.90;;;23.40;1.00;;;;;;5048611;28;20207;-54
2022/06/06 00:22:04;;;;;;;10.40;9.60;;;23.40;1.00;;;;;;5047379;28;20433;-54
2022/06/06 00:24:30;;;;;;;10.33;9.43;;;23.40;1.00;;;;;;5052281;28;21493;-53
2022/06/06 00:26:56;;;;;;;9.97;9.23;;;23.30;1.00;;;;;;5048462;28;20195;-54
2022/06/06 00:29:22;;;;;;;10.10;9.40;;;23.20;1.00;;;;;;5049289;28;20199;-52
2022/06/06 00:34:52;;;;;;;9.67;8.90;;;23.10;1.00;;;;;;5049785;28;20226;-52
2022/06/06 00:37:21;;;;;;;10.00;9.20;;;23.10;1.00;;;;;;5049225;28;20487;-53
2022/06/06 00:39:47;;;;;;;9.63;8.90;;;23.00;1.00;;;;;;5049783;28;20541;-54
2022/06/06 00:42:21;;;;;;;9.53;8.80;;;23.00;1.00;;;;;;5047774;28;20450;-53
2022/06/06 00:44:47;;;;;;;10.07;9.17;;;22.90;1.00;;;;;;5049038;28;20447;-53
2022/06/06 00:47:27;;;;;;;10.30;9.50;;;25.50;1.00;;;;;;5053851;28;20568;-53
2022/06/06 00:50:05;;;;;;;9.43;8.73;;;23.10;1.00;;;;;;5045568;28;20458;-53
2022/06/06 00:52:35;;;;;;;10.10;9.00;;;23.30;1.00;;;;;;5044088;28;20460;-53
2022/06/06 00:55:06;;;;;;;8.87;8.07;;;23.30;1.00;;;;;;5047829;28;20542;-55
2022/06/06 00:57:35;;;;;;;8.53;7.83;;;23.40;1.00;;;;;;5055199;28;20429;-55
2022/06/06 01:00:08;;;;;;;8.57;7.97;;;23.50;1.00;;;;;;5047710;28;20457;-52
2022/06/06 01:02:34;;;;;;;9.20;8.50;;;23.40;1.00;;;;;;5048122;28;20422;-53
2022/06/06 01:05:01;;;;;;;9.10;8.40;;;23.50;1.00;;;;;;5050172;28;20860;-54
2022/06/06 01:07:27;;;;;;;8.73;8.13;;;23.40;1.00;;;;;;5046058;28;20450;-54
2022/06/06 01:09:52;;;;;;;9.20;8.30;;;23.40;1.00;;;;;;5049229;28;20446;-54
2022/06/06 01:12:21;;;;;;;8.27;7.57;;;23.50;1.00;;;;;;5043722;28;20455;-56
2022/06/06 01:14:59;;;;;;;7.87;7.13;;;23.70;1.00;;;;;;5045600;28;20691;-55
2022/06/06 01:17:30;;;;;;;7.80;7.07;;;23.70;1.00;;;;;;5054235;28;20460;-54
2022/06/06 01:20:14;;;;;;;7.60;7.00;;;23.70;1.00;;;;;;5054703;28;20421;-55
2022/06/06 01:23:01;;;;;;;7.73;7.03;;;23.60;1.00;;;;;;5046902;28;20428;-53
2022/06/06 01:25:51;;;;;;;7.90;7.20;;;23.40;1.00;;;;;;5059929;28;20437;-54
2022/06/06 01:28:35;;;;;;;7.10;6.50;;;23.40;1.00;;;;;;5047723;28;21315;-53
2022/06/06 01:31:09;;;;;;;5.70;5.30;;;23.30;1.00;;;;;;5046448;28;20462;-53
2022/06/06 01:34:00;;;;;;;6.40;5.90;;;23.10;1.00;;;;;;5042919;28;20448;-54
2022/06/06 01:36:29;;;;;;;5.70;5.20;;;22.90;1.00;;;;;;5049054;28;20469;-55
2022/06/06 01:38:57;;;;;;;5.70;5.10;;;22.80;1.00;;;;;;5045645;28;22265;-53
2022/06/06 01:41:38;;;;;;;5.10;4.70;;;22.70;1.00;;;;;;5050649;28;20451;-53
2022/06/06 01:44:12;;;;;;;5.57;5.07;;;22.70;1.00;;;;;;5048124;28;20533;-53
2022/06/06 01:46:38;;;;;;;5.37;4.87;;;22.60;1.00;;;;;;5044647;28;20452;-54
2022/06/06 01:49:09;;;;;;;4.67;4.03;;;22.60;1.00;;;;;;5044901;28;20448;-54
2022/06/06 01:51:35;;;;;;;5.00;4.50;;;22.60;1.00;;;;;;5047616;28;20242;-52
2022/06/06 01:54:01;;;;;;;4.43;4.03;;;22.40;1.00;;;;;;5045706;28;20476;-55
2022/06/06 01:56:30;;;;;;;4.50;4.10;;;22.40;1.00;;;;;;5044840;28;20642;-53
2022/06/06 01:58:57;;;;;;;4.20;3.87;;;22.30;1.00;;;;;;5045311;28;20649;-54
2022/06/06 02:01:22;;;;;;;4.13;3.73;;;22.20;1.00;;;;;;5042914;28;20458;-53
2022/06/06 02:03:48;;;;;;;3.93;3.63;;;22.20;1.00;;;;;;5042706;28;20455;-54
2022/06/06 02:06:14;;;;;;;4.10;3.70;;;22.30;1.00;;;;;;5043563;28;20205;-56
2022/06/06 02:08:40;;;;;;;4.10;3.50;;;22.30;1.00;;;;;;5042649;28;20192;-52
2022/06/06 02:11:06;;;;;;;3.00;2.70;;;22.20;1.00;;;;;;5045128;28;21027;-54
2022/06/06 02:13:31;;;;;;;3.73;3.43;;;22.20;1.00;;;;;;5051350;28;20447;-56
2022/06/06 02:15:57;;;;;;;4.03;3.43;;;22.10;1.00;;;;;;5046334;28;20262;-54
2022/06/06 02:18:23;;;;;;;6.13;3.50;;;22.00;1.00;;;;;;5044291;28;20231;-54
2022/06/06 02:20:50;;;;;;;3.40;3.20;;;21.90;1.00;;;;;;5047944;28;20969;-55
2022/06/06 02:23:16;;;;;;;3.90;3.60;;;22.00;1.00;;;;;;5043936;28;20196;-54
2022/06/06 02:25:41;;;;;;;3.50;3.20;;;22.00;1.00;;;;;;5047112;28;20530;-53
2022/06/06 02:28:07;;;;;;;4.20;3.80;;;21.80;1.00;;;;;;5046811;28;20540;-54
2022/06/06 02:30:35;;;;;;;3.40;3.10;;;21.60;1.00;;;;;;5036766;28;20547;-54
2022/06/06 02:33:01;;;;;;;3.47;3.20;;;21.40;1.00;;;;;;5049916;28;20202;-53
2022/06/06 02:35:33;;;;;;;4.50;3.07;;;21.30;1.00;;;;;;5045104;28;20539;-54
2022/06/06 02:37:59;;;;;;;3.67;3.00;;;21.30;1.00;;;;;;5051732;28;20450;-53
2022/06/06 02:40:27;;;;;;;4.13;3.47;;;21.30;1.00;;;;;;5045620;28;22209;-53
2022/06/06 02:42:53;;;;;;;3.73;3.37;;;21.20;1.00;;;;;;5042797;28;20184;-53
2022/06/06 02:45:19;;;;;;;4.63;3.73;;;21.00;1.00;;;;;;5045058;28;20457;-55
2022/06/06 02:47:49;;;;;;;3.50;3.20;;;20.90;1.00;;;;;;5043112;28;20220;-53
2022/06/06 02:50:18;;;;;;;3.63;3.33;;;20.70;1.00;;;;;;5046325;28;20522;-54
2022/06/06 02:52:43;;;;;;;3.60;3.30;;;20.50;1.00;;;;;;5045963;28;20488;-55
2022/06/06 02:55:10;;;;;;;3.80;3.50;;;20.40;1.00;;;;;;5046111;28;20416;-56
2022/06/06 02:57:37;;;;;;;4.00;3.67;;;20.40;1.00;;;;;;5046315;28;20821;-54
2022/06/06 03:00:06;;;;;;;4.47;3.60;;;20.40;1.00;;;;;;5047934;28;20409;-55
2022/06/06 03:02:32;;;;;;;4.10;3.70;;;20.60;1.00;;;;;;5046758;28;20447;-54
2022/06/06 03:04:58;;;;;;;3.20;2.90;;;20.60;1.00;;;;;;5045420;28;20447;-53
2022/06/06 03:07:56;;;;;;;6.20;4.23;;;20.60;1.00;;;;;;5044363;28;20420;-54
2022/06/06 03:10:29;;;;;;;4.17;3.77;;;20.60;1.00;;;;;;5043046;28;20817;-54
2022/06/06 03:13:00;;;;;;;3.30;3.00;;;20.60;1.00;;;;;;5047148;28;20537;-52
2022/06/06 03:15:37;;;;;;;4.20;3.80;;;20.60;1.00;;;;;;5048138;28;20417;-55
2022/06/06 03:21:31;;;;;;;3.73;3.43;;;20.70;1.00;;;;;;5045329;28;20488;-54
2022/06/06 03:24:17;;;;;;;5.23;3.60;;;20.70;1.00;;;;;;5037185;28;20441;-52
2022/06/06 03:26:59;;;;;;;4.03;3.50;;;20.60;1.00;;;;;;5045347;28;20466;-55
2022/06/06 03:29:40;;;;;;;10.23;3.70;;;20.50;1.00;;;;;;5043920;28;20455;-56
2022/06/06 03:32:27;;;;;;;4.70;4.10;;;20.60;1.00;;;;;;5043586;28;20748;-55
2022/06/06 03:35:11;;;;;;;3.90;3.60;;;20.60;1.00;;;;;;5047665;28;20464;-56
2022/06/06 03:38:01;;;;;;;4.90;3.67;;;20.60;1.00;;;;;;5054857;28;20751;-54
2022/06/06 03:40:50;;;;;;;7.17;3.47;;;20.60;1.00;;;;;;5048328;28;20528;-53
2022/06/06 03:43:24;;;;;;;4.67;3.73;;;20.60;1.00;;;;;;5046306;28;20431;-55
2022/06/06 03:46:20;;;;;;;4.37;3.60;;;20.60;1.00;;;;;;5044968;28;20416;-54
2022/06/06 03:49:10;;;;;;;5.10;3.17;;;20.50;1.00;;;;;;5045098;28;20425;-54
2022/06/06 03:52:09;;;;;;;3.90;3.60;;;20.50;1.00;;;;;;5046364;28;20453;-55
2022/06/06 03:54:41;;;;;;;4.90;3.83;;;20.50;1.00;;;;;;5042584;28;20760;-53
2022/06/06 03:57:12;;;;;;;7.03;3.90;;;20.60;1.00;;;;;;5047159;28;20573;-53
2022/06/06 03:59:39;;;;;;;4.13;3.83;;;20.80;1.00;;;;;;5044953;28;20630;-53
2022/06/06 04:02:07;;;;;;;4.40;4.00;;;20.80;1.00;;;;;;5044923;28;20475;-55
2022/06/06 04:04:34;;;;;;;4.27;3.93;;;20.80;1.00;;;;;;5046555;28;20428;-53
2022/06/06 04:07:02;;;;;;;4.80;4.30;;;20.80;1.00;;;;;;5050891;28;20455;-54
2022/06/06 04:09:33;;;;;;;4.37;3.97;;;20.90;1.00;;;;;;5043128;28;20541;-52
2022/06/06 04:12:04;;;;;;;4.40;4.00;;;20.90;1.00;;;;;;5054376;28;21104;-54
2022/06/06 04:14:42;;;;;;;5.13;4.63;;;20.90;1.00;;;;;;5041801;28;20447;-55
2022/06/06 04:17:31;;;;;;;4.30;4.00;;;20.90;1.00;;;;;;5041600;28;20450;-54
2022/06/06 04:20:14;;;;;;;3.87;3.57;;;21.20;1.00;;;;;;5044871;28;20518;-56
2022/06/06 04:23:03;;;;;;;4.30;3.90;;;21.10;1.00;;;;;;5050361;28;20527;-54
2022/06/06 04:25:54;;;;;;;3.60;3.30;;;21.10;1.00;;;;;;5048235;28;20520;-55
2022/06/06 04:28:38;;;;;;;4.10;3.80;;;21.20;1.00;;;;;;5047272;28;20432;-55
2022/06/06 04:31:34;;;;;;;5.27;3.77;;;21.20;1.00;;;;;;5047867;28;20450;-54
2022/06/06 04:34:13;;;;;;;4.13;3.73;;;21.30;1.00;;;;;;5046448;28;20538;-55
2022/06/06 04:37:05;;;;;;;4.27;3.67;;;21.40;1.00;;;;;;5045299;28;20449;-56
2022/06/06 04:40:10;;;;;;;4.00;3.70;;;21.40;1.00;;;;;;5046819;28;20462;-55
2022/06/06 04:43:03;;;;;;;3.90;3.60;;;21.40;1.00;;;;;;5049244;28;20456;-56
2022/06/06 04:45:46;;;;;;;4.30;3.90;;;21.50;1.00;;;;;;5049217;28;20452;-54
2022/06/06 04:48:13;;;;;;;4.33;3.93;;;21.70;1.00;;;;;;5046708;28;20447;-54
2022/06/06 04:50:43;;;;;;;3.23;2.97;;;21.50;1.00;;;;;;5050017;28;20621;-56
2022/06/06 04:53:14;;;;;;;10.90;3.80;;;21.80;1.00;;;;;;5045611;28;20408;-53
2022/06/06 04:55:42;;;;;;;3.67;3.37;;;21.90;1.00;;;;;;5038736;28;20485;-54
2022/06/06 04:58:10;;;;;;;2.90;2.70;;;21.90;1.00;;;;;;5047231;28;20444;-54
2022/06/06 05:00:37;;;;;;;3.73;3.43;;;22.10;1.00;;;;;;5053422;28;20942;-51
2022/06/06 05:03:04;;;;;;;3.80;3.50;;;22.00;1.00;;;;;;5053680;28;20803;-54
2022/06/06 05:06:06;;;;;;;3.53;3.27;;;22.00;1.00;;;;;;5049004;28;20504;-55
2022/06/06 05:08:40;;;;;;;3.77;3.47;;;22.00;1.00;;;;;;5044148;28;20446;-53
2022/06/06 05:11:28;;;;;;;4.03;3.63;;;22.00;1.00;;;;;;5047356;28;20770;-52
2022/06/06 05:14:05;;;;;;;3.63;3.43;;;22.00;1.00;;;;;;5044741;28;20974;-54
2022/06/06 05:16:40;;;;;;;3.50;3.20;;;21.90;1.00;;;;;;5046561;28;20436;-52
2022/06/06 05:19:34;;;;;;;3.10;2.90;;;22.00;1.00;;;;;;5044117;28;20468;-55
2022/06/06 05:22:28;;;;;;;3.63;3.20;;;22.00;1.00;;;;;;5043585;28;20454;-55
2022/06/06 05:25:31;;;;;;;3.73;3.43;;;22.60;1.00;;;;;;5045220;28;20462;-55
2022/06/06 05:28:24;;;;;;;3.90;3.60;;;21.70;1.00;;;;;;5045436;28;20482;-53
2022/06/06 05:31:13;;;;;;;3.63;3.33;;;21.70;1.00;;;;;;5050144;28;20474;-55
2022/06/06 05:33:50;;;;;;;3.70;3.40;;;21.80;1.00;;;;;;5044819;28;20450;-53
2022/06/06 05:36:33;;;;;;;4.40;4.10;;;22.00;1.00;;;;;;5046645;28;20442;-54
2022/06/06 05:39:19;;;;;;;4.17;3.87;;;22.00;1.00;;;;;;5055545;28;20826;-54
2022/06/06 05:41:53;;;;;;;3.83;3.43;;;21.90;1.00;;;;;;5045652;28;20438;-52
2022/06/06 05:44:19;;;;;;;3.57;3.23;;;21.70;1.00;;;;;;5047927;28;20445;-55
2022/06/06 05:47:14;;;;;;;3.80;3.50;;;21.70;1.00;;;;;;5052554;28;20548;-53
2022/06/06 05:50:01;;;;;;;4.10;3.80;;;21.80;1.00;;;;;;5046175;28;20565;-52
2022/06/06 05:52:41;;;;;;;4.43;3.50;;;22.00;1.00;;;;;;5050117;28;20421;-54
2022/06/06 05:55:33;;;;;;;3.47;3.17;;;22.00;1.00;;;;;;5046150;28;20485;-53
2022/06/06 05:58:16;;;;;;;3.80;3.37;;;22.00;1.00;;;;;;5049026;28;20981;-54
2022/06/06 06:00:53;;;;;;;3.67;3.30;;;22.00;1.00;;;;;;5047130;28;20827;-53
2022/06/06 06:03:42;;;;;;;3.57;3.27;;;22.20;1.00;;;;;;5045872;28;20450;-55
2022/06/06 06:06:17;;;;;;;2.97;2.70;;;22.50;1.00;;;;;;5049892;28;20541;-57
2022/06/06 06:08:52;;;;;;;3.50;3.00;;;22.50;1.00;;;;;;5049841;28;20457;-54
2022/06/06 06:11:29;;;;;;;3.33;3.13;;;22.60;1.00;;;;;;5049166;28;20846;-54
2022/06/06 06:14:06;;;;;;;3.30;3.10;;;22.60;1.00;;;;;;5052985;28;20500;-54
2022/06/06 06:16:36;;;;;;;3.47;3.27;;;22.70;1.00;;;;;;5044484;28;20501;-55
2022/06/06 06:19:09;;;;;;;2.93;2.73;;;22.70;1.00;;;;;;5051150;28;20523;-54
2022/06/06 06:21:41;;;;;;;2.67;2.47;;;22.70;1.00;;;;;;5044045;28;20955;-53
2022/06/06 06:24:12;;;;;;;3.20;3.00;;;22.90;1.00;;;;;;5060465;28;20434;-54
2022/06/06 06:26:39;;;;;;;2.63;2.43;;;22.90;1.00;;;;;;5051641;28;20424;-54
2022/06/06 06:29:07;;;;;;;2.90;2.70;;;22.70;1.00;;;;;;5051549;28;20456;-55
2022/06/06 06:31:53;;;;;;;2.70;2.50;;;22.60;1.00;;;;;;5048821;28;20453;-54
2022/06/06 06:34:41;;;;;;;3.63;2.43;;;22.50;1.00;;;;;;5051166;28;20515;-53
2022/06/06 06:37:26;;;;;;;2.60;2.40;;;22.50;1.00;;;;;;5045319;28;20461;-53
2022/06/06 06:40:21;;;;;;;2.23;2.13;;;22.50;1.00;;;;;;5048378;28;20474;-54
2022/06/06 06:43:07;;;;;;;2.87;2.20;;;22.30;1.00;;;;;;5048136;28;20454;-53
2022/06/06 06:45:49;;;;;;;3.03;2.83;;;22.30;1.00;;;;;;5053797;28;20400;-53
2022/06/06 06:48:29;;;;;;;2.50;2.20;;;22.30;1.00;;;;;;5056715;28;20539;-53
2022/06/06 06:51:17;;;;;;;2.60;2.40;;;22.40;1.00;;;;;;5070390;28;20408;-53
2022/06/06 06:53:54;;;;;;;4.60;2.30;;;22.70;1.00;;;;;;5048781;28;20450;-54
2022/06/06 06:56:31;;;;;;;3.03;2.20;;;23.10;1.00;;;;;;5050408;28;20412;-55
2022/06/06 06:59:05;;;;;;;2.40;2.20;;;23.30;1.00;;;;;;5056097;28;20552;-53
2022/06/06 07:10:37;;;;;;;2.30;2.10;;;23.70;1.00;;;;;;5070355;28;20982;-59
2022/06/06 07:13:46;;;;;;;2.13;2.03;;;24.00;1.00;;;;;;5052379;28;20409;-53
2022/06/06 07:16:28;;;;;;;2.60;2.40;;;24.00;1.00;;;;;;5054233;28;20452;-56
2022/06/06 07:19:02;;;;;;;4.07;2.20;;;23.90;1.00;;;;;;5070009;28;20660;-54
2022/06/06 07:21:30;;;;;;;2.00;1.90;;;23.60;1.00;;;;;;5057095;28;20430;-54
2022/06/06 07:24:00;;;;;;;2.57;2.07;;;23.60;1.00;;;;;;5049958;28;20865;-54
2022/06/06 07:26:26;;;;;;;2.73;2.30;;;23.70;1.00;;;;;;5058423;28;20431;-54
2022/06/06 07:28:52;;;;;;;3.37;1.93;;;23.70;1.00;;;;;;5050188;28;20749;-54
2022/06/06 07:31:50;;;;;;;2.70;2.03;;;23.80;1.00;;;;;;5052541;28;20444;-54
2022/06/06 07:34:47;;;;;;;2.23;2.00;;;23.60;1.00;;;;;;5069316;28;20540;-56
2022/06/06 07:37:28;;;;;;;2.90;2.67;;;23.40;1.00;;;;;;5051260;28;20445;-54
2022/06/06 07:39:57;;;;;;;2.30;2.10;;;23.50;1.00;;;;;;5061182;28;20523;-55
2022/06/06 07:42:37;;;;;;;4.43;2.57;;;23.40;1.00;;;;;;5049690;28;20435;-53
2022/06/06 07:45:24;;;;;;;2.30;2.10;;;23.50;1.00;;;;;;5049791;28;20917;-53
2022/06/06 07:48:14;;;;;;;3.70;2.40;;;23.20;1.00;;;;;;5049552;28;21166;-55
2022/06/06 07:51:19;;;;;;;2.40;2.20;;;23.40;1.00;;;;;;5063703;28;20454;-56
2022/06/06 07:53:57;;;;;;;2.53;2.33;;;23.30;1.00;;;;;;5059591;28;20432;-55
2022/06/06 07:56:35;;;;;;;2.43;2.23;;;23.60;1.00;;;;;;5052233;28;20457;-54
2022/06/06 07:59:26;;;;;;;2.43;2.10;;;24.00;1.00;;;;;;5073450;28;20497;-54
2022/06/06 08:02:11;;;;;;;3.70;2.30;;;24.40;1.00;;;;;;5066436;28;20937;-54
2022/06/06 08:04:54;;;;;;;2.47;2.20;;;24.80;1.00;;;;;;5056245;28;20400;-53
2022/06/06 08:07:34;;;;;;;2.47;2.10;;;25.00;1.00;;;;;;5071718;28;20798;-54
2022/06/06 08:10:09;;;;;;;2.40;2.20;;;24.70;1.00;;;;;;5055075;28;20441;-56
2022/06/06 08:12:34;;;;;;;2.30;2.10;;;24.80;1.00;;;;;;5067989;28;20436;-53
2022/06/06 08:15:24;;;;;;;2.40;2.20;;;24.70;1.00;;;;;;5073429;28;20493;-56
2022/06/06 08:17:52;;;;;;;2.47;2.27;;;24.80;1.00;;;;;;5073307;28;20242;-57
2022/06/06 08:20:27;;;;;;;2.47;2.27;;;24.80;1.00;;;;;;5054426;28;20901;-55
2022/06/06 08:22:57;;;;;;;2.80;2.47;;;24.70;1.00;;;;;;5052958;28;20485;-56
2022/06/06 08:25:23;;;;;;;2.57;2.37;;;24.90;1.00;;;;;;5052875;28;20432;-54
2022/06/06 08:27:51;;;;;;;2.43;2.23;;;24.60;1.00;;;;;;5053741;28;21105;-52
2022/06/06 08:30:19;;;;;;;2.50;2.30;;;24.50;1.00;;;;;;5073066;28;20184;-55
2022/06/06 08:32:45;;;;;;;4.20;2.27;;;24.80;1.00;;;;;;5072587;28;20850;-54
2022/06/06 08:35:11;;;;;;;2.10;2.00;;;25.10;1.00;;;;;;5073022;28;20917;-54
2022/06/06 08:37:53;;;;;;;2.27;2.07;;;25.20;1.00;;;;;;5072082;28;20416;-54
2022/06/06 08:40:47;;;;;;;4.03;2.27;;;25.00;1.00;;;;;;5052939;28;20263;-54
2022/06/06 08:43:53;;;;;;;2.60;2.40;;;25.20;1.00;;;;;;5058359;28;20864;-53
2022/06/06 08:46:29;;;;;;;1.90;1.80;;;26.20;1.00;;;;;;5055739;28;20436;-52
2022/06/06 08:49:02;;;;;;;2.23;2.07;;;26.10;1.00;;;;;;5060420;28;20514;-52
2022/06/06 08:51:44;;;;;;;2.60;1.97;;;26.10;1.00;;;;;;5052065;28;20855;-55
2022/06/06 08:54:48;;;;;;;2.23;2.03;;;25.70;1.00;;;;;;5066554;28;20435;-56
2022/06/06 08:57:13;;;;;;;2.10;1.90;;;25.60;1.00;;;;;;5072556;28;20520;-55
2022/06/06 09:00:32;;;;;;;2.27;2.10;;;25.40;1.00;;;;;;5072508;28;21052;-54
2022/06/06 09:03:12;;;;;;;2.23;2.13;;;25.10;1.00;;;;;;5049820;28;20183;-55
2022/06/06 09:06:12;;;;;;;2.43;2.20;;;25.00;1.00;;;;;;5049821;28;20430;-56
2022/06/06 09:09:14;;;;;;;2.23;1.80;;;25.00;1.00;;;;;;5066613;28;21214;-56
2022/06/06 09:12:16;;;;;;;3.40;1.87;;;25.60;1.00;;;;;;5052434;28;20465;-56
2022/06/06 09:15:11;;;;;;;2.50;2.00;;;26.00;1.00;;;;;;5055411;28;20421;-54
2022/06/06 09:17:38;;;;;;;1.97;1.80;;;25.90;1.00;;;;;;5049163;28;20504;-53
2022/06/06 09:20:07;;;;;;;2.63;2.20;;;25.90;1.00;;;;;;5049366;28;20527;-56
2022/06/06 09:22:47;;;;;;;2.20;2.00;;;25.80;1.00;;;;;;5049135;28;20425;-54
2022/06/06 09:25:30;;;;;;;2.50;2.30;;;26.00;1.00;;;;;;5046568;28;20753;-53
2022/06/06 09:28:32;;;;;;;2.10;1.80;;;26.40;1.00;;;;;;5051248;28;20429;-56
2022/06/06 09:31:26;;;;;;;2.20;2.00;;;26.70;1.00;;;;;;5045353;28;20425;-54
2022/06/06 09:34:16;;;;;;;2.37;1.93;;;26.80;1.00;;;;;;5052089;28;20568;-54
2022/06/06 09:36:49;;;;;;;2.73;2.53;;;26.70;1.00;;;;;;5050570;28;20438;-55
2022/06/06 09:39:36;;;;;;;3.20;2.07;;;26.60;1.00;;;;;;5048839;28;20460;-55
2022/06/06 09:42:37;;;;;;;2.30;2.00;;;26.50;1.00;;;;;;5049932;28;20453;-55
2022/06/06 09:45:31;;;;;;;2.37;1.90;;;26.90;1.00;;;;;;5048294;28;20507;-55
2022/06/06 09:48:28;;;;;;;3.43;2.20;;;27.30;1.00;;;;;;5051441;28;20590;-55
2022/06/06 09:51:00;;;;;;;1.97;1.87;;;27.60;1.00;;;;;;5047231;28;20416;-54
2022/06/06 09:53:26;;;;;;;2.10;2.00;;;27.50;1.00;;;;;;5047775;28;20445;-52
2022/06/06 09:59:01;;;;;;;4.30;2.20;;;27.50;1.00;;;;;;5046907;28;20452;-55
2022/06/06 10:01:56;;;;;;;3.20;2.50;;;27.10;1.00;;;;;;5048441;28;20453;-55
2022/06/06 10:04:40;;;;;;;2.57;1.80;;;26.40;1.00;;;;;;5054969;28;20844;-56
2022/06/06 10:07:43;;;;;;;2.40;2.20;;;26.00;1.00;;;;;;5051235;28;20449;-55
2022/06/06 10:10:14;;;;;;;2.20;2.00;;;26.60;1.00;;;;;;5046461;28;20450;-53
2022/06/06 10:13:01;;;;;;;2.70;2.50;;;26.70;1.00;;;;;;5051914;28;20483;-55
2022/06/06 10:15:58;;;;;;;2.43;2.17;;;26.90;1.00;;;;;;5051001;28;20493;-53
2022/06/06 10:18:30;;;;;;;2.37;2.17;;;27.00;1.00;;;;;;5043484;28;20458;-55
2022/06/06 10:21:15;;;;;;;2.27;2.07;;;26.80;1.00;;;;;;5052588;28;20924;-54
2022/06/06 10:24:08;;;;;;;1.90;1.80;;;26.80;1.00;;;;;;5045633;28;20471;-54
2022/06/06 10:27:04;;;;;;;4.13;2.43;;;26.80;1.00;;;;;;5044455;28;20416;-54
2022/06/06 10:30:13;;;;;;;2.07;1.97;;;26.40;1.00;;;;;;5047781;28;20450;-55
2022/06/06 10:32:42;;;;;;;3.30;1.77;;;26.60;1.00;;;;;;5047054;28;20453;-54
2022/06/06 10:35:21;;;;;;;2.50;2.30;;;27.20;1.00;;;;;;5050768;28;20474;-55
2022/06/06 10:37:54;;;;;;;1.90;1.80;;;27.70;1.00;;;;;;5049864;28;20432;-52
2022/06/06 10:40:33;;;;;;;4.33;2.10;;;28.00;1.00;;;;;;5048559;28;20541;-55
2022/06/06 10:43:14;;;;;;;2.10;1.90;;;28.10;1.00;;;;;;5045793;28;20477;-52
2022/06/06 10:45:48;;;;;;;4.90;1.80;;;28.00;1.00;;;;;;5047937;28;20525;-55
2022/06/06 10:48:24;;;;;;;2.80;2.60;;;28.30;1.00;;;;;;5043382;28;20528;-53
2022/06/06 10:54:18;;;;;;;2.07;1.87;;;28.30;1.00;;;;;;5047403;28;20545;-55
2022/06/06 10:57:09;;;;;;;2.40;2.20;;;27.60;1.00;;;;;;5050993;28;20460;-53
2022/06/06 11:00:10;;;;;;;2.53;2.10;;;27.40;1.00;;;;;;5037065;28;20460;-53
2022/06/06 11:03:01;;;;;;;3.07;2.07;;;27.40;1.00;;;;;;5049727;28;20440;-54
2022/06/06 11:05:36;;;;;;;2.40;2.20;;;27.50;1.00;;;;;;5045220;28;20425;-52
2022/06/06 11:08:15;;;;;;;2.30;1.70;;;27.80;1.00;;;;;;5044636;28;20452;-54
2022/06/06 11:11:12;;;;;;;2.50;2.27;;;28.30;1.00;;;;;;5052269;28;20475;-53
2022/06/06 11:13:47;;;;;;;2.60;2.00;;;28.20;1.00;;;;;;5050690;28;20438;-55
2022/06/06 11:16:21;;;;;;;2.40;2.20;;;27.80;1.00;;;;;;5046808;28;20456;-55
2022/06/06 11:19:16;;;;;;;2.60;2.40;;;28.00;1.00;;;;;;5045213;28;20452;-56
2022/06/06 11:21:56;;;;;;;2.40;2.20;;;28.00;1.00;;;;;;5051711;28;20758;-52
2022/06/06 11:24:37;;;;;;;2.30;2.10;;;28.10;1.00;;;;;;5056364;28;20458;-55
2022/06/06 11:27:12;;;;;;;2.50;2.00;;;28.40;1.00;;;;;;5048014;28;20503;-53
2022/06/06 11:29:47;;;;;;;2.93;2.10;;;28.50;1.00;;;;;;5063315;28;20511;-55
2022/06/06 11:32:27;;;;;;;2.10;1.90;;;28.30;1.00;;;;;;5052041;28;20455;-53
2022/06/06 11:35:09;;;;;;;2.70;2.10;;;28.00;1.00;;;;;;5059766;28;20416;-54
2022/06/06 11:38:08;;;;;;;4.30;2.00;;;27.40;1.00;;;;;;5051161;28;20423;-54
2022/06/06 11:40:57;;;;;;;4.03;2.43;;;27.30;1.00;;;;;;5057811;28;20432;-55
2022/06/06 11:43:40;;;;;;;2.73;2.30;;;27.40;1.00;;;;;;5057986;28;20766;-52
2022/06/06 11:46:17;;;;;;;2.60;2.07;;;27.70;1.00;;;;;;5049188;28;20445;-54
2022/06/06 11:48:59;;;;;;;2.50;2.30;;;27.70;1.00;;;;;;5052233;28;20405;-53
2022/06/06 11:52:00;;;;;;;2.37;2.17;;;27.50;1.00;;;;;;5050560;28;20452;-55
2022/06/06 11:54:42;;;;;;;2.90;2.17;;;27.50;1.00;;;;;;5051661;28;20442;-55
2022/06/06 11:57:25;;;;;;;2.20;2.00;;;27.60;1.00;;;;;;5060979;28;20442;-56
2022/06/06 12:00:25;;;;;;;1.90;1.80;;;27.80;1.00;;;;;;5051612;28;20469;-53
2022/06/06 12:03:29;;;;;;;2.30;2.10;;;28.10;1.00;;;;;;5039167;28;20425;-56
2022/06/06 12:06:13;;;;;;;2.20;2.00;;;28.30;1.00;;;;;;5055485;28;20447;-53
2022/06/06 12:08:58;;;;;;;2.40;2.10;;;28.70;1.00;;;;;;5050698;28;20421;-53
2022/06/06 12:11:48;;;;;;;2.97;2.37;;;28.90;1.00;;;;;;5051722;28;20454;-54
2022/06/06 12:14:50;;;;;;;2.50;1.93;;;28.80;1.00;;;;;;5052676;28;20416;-53
2022/06/06 12:17:48;;;;;;;2.10;1.90;;;28.50;1.00;;;;;;5051532;28;20412;-54
2022/06/06 12:20:29;;;;;;;2.50;2.30;;;28.30;1.00;;;;;;5049867;28;20485;-53
2022/06/06 12:23:08;;;;;;;2.30;2.07;;;28.30;1.00;;;;;;5049050;28;20500;-53
2022/06/06 12:25:55;;;;;;;1.90;1.80;;;28.50;1.00;;;;;;5050215;28;20512;-54
2022/06/06 12:28:39;;;;;;;2.50;2.10;;;28.60;1.00;;;;;;5049842;28;20415;-53
2022/06/06 12:31:19;;;;;;;3.30;2.77;;;28.50;1.00;;;;;;5042720;28;20435;-53
2022/06/06 12:33:58;;;;;;;2.27;2.10;;;28.90;1.00;;;;;;5048779;28;20523;-55
2022/06/06 12:36:57;;;;;;;2.90;2.50;;;29.20;1.00;;;;;;5052214;28;20438;-54
2022/06/06 12:39:44;;;;;;;2.37;2.10;;;29.30;1.00;;;;;;5052127;28;20479;-54
2022/06/06 12:42:24;;;;;;;3.53;3.07;;;29.00;1.00;;;;;;5054807;28;21098;-53
2022/06/06 12:45:12;;;;;;;2.07;1.97;;;28.70;1.00;;;;;;5053205;28;20479;-52
2022/06/06 12:47:44;;;;;;;2.80;2.60;;;29.10;1.00;;;;;;5049937;28;20953;-53
2022/06/06 12:50:37;;;;;;;2.20;2.00;;;29.10;1.00;;;;;;5051092;28;20522;-53
2022/06/06 12:53:18;;;;;;;2.60;2.40;;;29.10;1.00;;;;;;5054245;28;20802;-56
2022/06/06 12:58:44;;;;;;;2.90;2.43;;;28.70;1.00;;;;;;5049633;28;20451;-55
2022/06/06 13:01:45;;;;;;;2.40;2.20;;;29.00;1.00;;;;;;5047445;28;20428;-57
2022/06/06 13:04:29;;;;;;;3.93;2.50;;;29.00;1.00;;;;;;5047119;28;20453;-55
2022/06/06 13:07:13;;;;;;;2.30;1.80;;;29.20;1.00;;;;;;5058553;28;20538;-53
2022/06/06 13:09:54;;;;;;;2.37;2.17;;;29.60;1.00;;;;;;5050002;28;20923;-51
2022/06/06 13:12:47;;;;;;;2.30;2.10;;;29.80;1.00;;;;;;5056200;28;20494;-53
2022/06/06 13:15:42;;;;;;;2.60;2.33;;;30.00;1.00;;;;;;5050523;28;20513;-52
2022/06/06 13:18:10;;;;;;;2.70;2.43;;;29.90;1.00;;;;;;5052146;28;20405;-53
2022/06/06 13:21:02;;;;;;;2.17;1.90;;;29.80;1.00;;;;;;5048800;28;20465;-55
2022/06/06 13:24:04;;;;;;;3.17;2.03;;;29.90;1.00;;;;;;5056380;28;20751;-57
2022/06/06 13:26:47;;;;;;;2.00;1.80;;;30.00;1.00;;;;;;5047122;28;20520;-52
2022/06/06 13:29:34;;;;;;;2.77;2.30;;;29.70;1.00;;;;;;5049312;28;20433;-53
2022/06/06 13:32:09;;;;;;;2.43;1.97;;;30.20;1.00;;;;;;5050669;28;21003;-53
2022/06/06 13:34:34;;;;;;;2.50;2.13;;;30.20;1.00;;;;;;5045371;28;20457;-55
2022/06/06 13:37:23;;;;;;;2.73;2.33;;;30.30;1.00;;;;;;5050061;28;20520;-52
2022/06/06 13:40:34;;;;;;;2.90;1.80;;;30.50;1.00;;;;;;5048213;28;20315;-55
2022/06/06 13:43:39;;;;;;;2.60;2.40;;;30.80;1.00;;;;;;5047006;28;20414;-53
2022/06/06 13:46:07;;;;;;;2.23;2.00;;;30.60;1.00;;;;;;5048016;28;20552;-53
2022/06/06 13:49:02;;;;;;;2.30;2.10;;;30.10;1.00;;;;;;5069298;28;20430;-54
2022/06/06 13:51:41;;;;;;;2.10;1.90;;;29.70;1.00;;;;;;5043091;28;20965;-53
2022/06/06 13:54:10;;;;;;;3.17;2.10;;;29.80;1.00;;;;;;5048854;28;20478;-55
2022/06/06 13:56:42;;;;;;;2.40;2.20;;;30.00;1.00;;;;;;5050325;28;20496;-55
2022/06/06 13:59:33;;;;;;;1.93;1.80;;;29.90;1.00;;;;;;5046883;28;20462;-54
2022/06/06 14:02:20;;;;;;;2.00;1.80;;;30.10;1.00;;;;;;5051202;28;20421;-52
2022/06/06 14:05:07;;;;;;;2.33;2.13;;;30.20;1.00;;;;;;5059565;28;20429;-53
2022/06/06 14:08:01;;;;;;;3.40;2.37;;;30.20;1.00;;;;;;5071520;28;20430;-51
2022/06/06 14:10:38;;;;;;;2.13;2.00;;;29.90;1.00;;;;;;5052635;28;20457;-53
2022/06/06 14:13:30;;;;;;;2.37;2.17;;;29.90;1.00;;;;;;5051222;28;20408;-54
2022/06/06 14:15:57;;;;;;;2.03;1.60;;;30.20;1.00;;;;;;5046682;28;20929;-55
2022/06/06 14:18:30;;;;;;;2.43;2.23;;;30.70;1.00;;;;;;5048446;28;20532;-55
2022/06/06 14:20:57;;;;;;;2.13;2.03;;;31.40;1.00;;;;;;5047786;28;20752;-56
2022/06/06 14:23:23;;;;;;;2.17;2.07;;;31.10;1.00;;;;;;5048969;28;20454;-53
2022/06/06 14:25:52;;;;;;;2.83;2.43;;;30.70;1.00;;;;;;5050972;28;20446;-54